createdAt,value
2022-12-08T00:00:28.829Z,99547.19
2022-12-08T00:02:55.142Z,99548.58
2022-12-08T00:05:40.227Z,99547.55
2022-12-08T00:08:27.869Z,99553.29
2022-12-08T00:10:53.889Z,99560.17
2022-12-08T00:13:19.907Z,99567.92
2022-12-08T00:15:46.425Z,99559.52
2022-12-08T00:18:12.430Z,99568.30
2022-12-08T00:20:38.630Z,99567.73
2022-12-08T00:23:05.261Z,99573.23
2022-12-08T00:25:50.825Z,99576.55
2022-12-08T00:28:17.359Z,99578.54
2022-12-08T00:30:43.339Z,99585.35
2022-12-08T00:33:10.426Z,99585.52
2022-12-08T00:35:42.761Z,99589.80
2022-12-08T00:38:09.240Z,99594.84
2022-12-08T00:40:37.517Z,99600.19
2022-12-08T00:43:41.300Z,99596.17
2022-12-08T00:46:08.009Z,99604.06
2022-12-08T00:48:34.708Z,99608.23
2022-12-08T00:55:00.643Z,99620.24
2022-12-08T00:57:51.653Z,99619.58
2022-12-08T01:00:18.195Z,99621.85
2022-12-08T01:02:44.245Z,99622.66
2022-12-08T01:05:10.798Z,99626.12
2022-12-08T01:07:37.507Z,99618.70
2022-12-08T01:10:04.234Z,99620.48
2022-12-08T01:12:30.864Z,99625.67
2022-12-08T01:15:02.052Z,99631.35
2022-12-08T01:17:28.425Z,99632.60
2022-12-08T01:19:54.464Z,99630.11
2022-12-08T01:22:20.458Z,99631.06
2022-12-08T01:24:46.556Z,99636.38
2022-12-08T01:27:15.500Z,99632.24
2022-12-08T01:29:41.785Z,99636.77
2022-12-08T01:32:08.676Z,99636.39
2022-12-08T01:34:35.513Z,99631.36
2022-12-08T01:37:01.671Z,99631.44
2022-12-08T01:39:29.397Z,99632.20
2022-12-08T01:41:56.036Z,99629.52
2022-12-08T01:44:22.017Z,99632.27
2022-12-08T01:46:48.692Z,99629.52
2022-12-08T01:49:23.133Z,99633.29
2022-12-08T01:51:57.135Z,99638.02
2022-12-08T01:54:27.758Z,99636.73
2022-12-08T01:57:02.971Z,99640.02
2022-12-08T01:59:32.449Z,99644.77
2022-12-08T02:01:59.207Z,99650.16
2022-12-08T02:04:25.576Z,99646.59
2022-12-08T02:06:53.136Z,99643.27
2022-12-08T02:09:21.210Z,99643.79
2022-12-08T02:11:48.568Z,99643.80
2022-12-08T02:14:15.002Z,99641.57
2022-12-08T02:17:02.689Z,99636.13
2022-12-08T02:19:50.683Z,99637.11
2022-12-08T02:22:32.463Z,99638.92
2022-12-08T02:25:10.613Z,99640.99
2022-12-08T02:27:54.587Z,99645.38
2022-12-08T02:30:35.055Z,99648.57
2022-12-08T02:33:22.522Z,99643.39
2022-12-08T02:36:02.052Z,99636.63
2022-12-08T02:38:46.741Z,99634.75
2022-12-08T02:41:36.915Z,99637.87
2022-12-08T02:44:21.653Z,99643.22
2022-12-08T02:46:55.269Z,99642.30
2022-12-08T02:49:21.357Z,99644.29
2022-12-08T02:51:47.337Z,99646.16
2022-12-08T02:54:14.821Z,99652.70
2022-12-08T02:57:06.806Z,99652.83
2022-12-08T02:59:32.860Z,99655.92
2022-12-08T03:02:23.077Z,99664.02
2022-12-08T03:05:18.423Z,99667.08
2022-12-08T03:08:02.450Z,99670.46
2022-12-08T03:10:40.792Z,99667.34
2022-12-08T03:13:17.455Z,99669.84
2022-12-08T03:15:48.601Z,99669.20
2022-12-08T03:18:18.472Z,99684.63
2022-12-08T03:20:46.998Z,99681.42
2022-12-08T03:23:15.481Z,99676.71
2022-12-08T03:25:51.543Z,99675.37
2022-12-08T03:28:18.122Z,99684.86
2022-12-08T03:30:49.287Z,99689.09
2022-12-08T03:33:24.457Z,99689.79
2022-12-08T03:35:51.301Z,99692.98
2022-12-08T03:38:18.053Z,99690.52
2022-12-08T03:41:04.477Z,99697.96
2022-12-08T03:43:30.500Z,99698.54
2022-12-08T03:45:56.520Z,99698.67
2022-12-08T03:48:23.018Z,99697.20
2022-12-08T03:50:49.556Z,99698.59
2022-12-08T03:53:15.679Z,99698.24
2022-12-08T03:55:42.622Z,99699.70
2022-12-08T03:58:09.158Z,99697.44
2022-12-08T04:00:35.139Z,99702.39
2022-12-08T04:03:01.219Z,99699.65
2022-12-08T04:05:27.298Z,99703.40
2022-12-08T04:07:57.039Z,99712.20
2022-12-08T04:10:23.706Z,99708.08
2022-12-08T04:12:50.418Z,99715.27
2022-12-08T04:15:16.965Z,99714.36
2022-12-08T04:17:43.447Z,99711.19
2022-12-08T04:20:10.339Z,99717.84
2022-12-08T04:22:36.308Z,99718.89
2022-12-08T04:25:02.804Z,99717.10
2022-12-08T04:27:28.824Z,99718.39
2022-12-08T04:29:54.951Z,99720.80
2022-12-08T04:32:20.980Z,99719.95
2022-12-08T04:34:46.995Z,99715.27
2022-12-08T04:37:13.029Z,99724.04
2022-12-08T04:39:39.003Z,99728.23
2022-12-08T04:42:05.161Z,99733.69
2022-12-08T04:44:31.642Z,99732.85
2022-12-08T04:46:57.657Z,99734.03
2022-12-08T04:49:24.184Z,99732.05
2022-12-08T04:51:50.178Z,99735.66
2022-12-08T04:54:16.707Z,99738.09
2022-12-08T04:56:42.736Z,99733.71
2022-12-08T04:59:09.296Z,99734.39
2022-12-08T05:01:35.850Z,99733.78
2022-12-08T05:04:02.501Z,99740.00
2022-12-08T05:06:28.548Z,99745.28
2022-12-08T05:08:54.624Z,99749.66
2022-12-08T05:11:20.677Z,99750.52
2022-12-08T05:13:47.120Z,99750.70
2022-12-08T05:16:15.183Z,99760.66
2022-12-08T05:18:42.355Z,99760.42
2022-12-08T05:21:09.955Z,99764.77
2022-12-08T05:23:36.529Z,99760.09
2022-12-08T05:26:02.606Z,99762.68
2022-12-08T05:28:44.356Z,99757.85
2022-12-08T05:31:15.405Z,99759.86
2022-12-08T05:33:42.672Z,99758.05
2022-12-08T05:36:11.149Z,99756.21
2022-12-08T05:38:37.488Z,99759.38
2022-12-08T05:41:05.623Z,99756.45
2022-12-08T05:43:31.678Z,99758.40
2022-12-08T05:45:58.095Z,99758.33
2022-12-08T05:48:24.231Z,99754.59
2022-12-08T05:50:51.838Z,99757.98
2022-12-08T05:53:19.539Z,99759.23
2022-12-08T05:55:47.813Z,99759.70
2022-12-08T05:58:16.516Z,99761.62
2022-12-08T06:00:42.838Z,99767.12
2022-12-08T06:03:11.476Z,99772.23
2022-12-08T06:05:37.523Z,99781.48
2022-12-08T06:08:04.274Z,99786.88
2022-12-08T06:10:30.341Z,99791.50
2022-12-08T06:12:56.703Z,99805.86
2022-12-08T06:15:22.783Z,99805.20
2022-12-08T06:17:49.438Z,99809.42
2022-12-08T06:20:15.958Z,99807.09
2022-12-08T06:22:42.106Z,99814.31
2022-12-08T06:25:10.337Z,99821.27
2022-12-08T06:27:36.593Z,99822.38
2022-12-08T06:30:04.855Z,99822.80
2022-12-08T06:32:31.125Z,99816.67
2022-12-08T06:34:57.398Z,99817.34
2022-12-08T06:37:23.509Z,99822.06
2022-12-08T06:39:50.004Z,99821.22
2022-12-08T06:42:34.765Z,99816.64
2022-12-08T06:45:01.012Z,99818.50
2022-12-08T06:47:26.976Z,99821.02
2022-12-08T06:49:53.074Z,99824.30
2022-12-08T06:52:19.155Z,99827.89
2022-12-08T06:54:45.125Z,99831.94
2022-12-08T06:57:11.219Z,99834.17
2022-12-08T06:59:38.750Z,99831.17
2022-12-08T07:02:05.450Z,99840.34
2022-12-08T07:04:31.991Z,99840.02
2022-12-08T07:06:58.004Z,99838.20
2022-12-08T07:09:24.016Z,99836.31
2022-12-08T07:11:49.963Z,99834.18
2022-12-08T07:14:16.143Z,99839.31
2022-12-08T07:16:42.273Z,99839.30
2022-12-08T07:19:08.806Z,99841.52
2022-12-08T07:21:34.814Z,99842.94
2022-12-08T07:24:01.020Z,99840.08
2022-12-08T07:26:27.519Z,99851.48
2022-12-08T07:28:53.806Z,99860.09
2022-12-08T07:31:22.897Z,99864.71
2022-12-08T07:33:49.876Z,99864.89
2022-12-08T07:36:16.461Z,99863.08
2022-12-08T07:38:43.668Z,99862.35
2022-12-08T07:41:17.949Z,99862.63
2022-12-08T07:43:45.563Z,99859.77
2022-12-08T07:46:17.021Z,99856.63
2022-12-08T07:48:43.764Z,99860.86
2022-12-08T07:51:13.148Z,99860.14
2022-12-08T07:53:42.814Z,99866.23
2022-12-08T07:56:12.152Z,99864.15
2022-12-08T07:58:38.931Z,99867.35
2022-12-08T08:01:06.510Z,99864.90
2022-12-08T08:03:33.022Z,99865.41
2022-12-08T08:06:04.717Z,99865.35
2022-12-08T08:08:31.424Z,99867.50
2022-12-08T08:10:58.197Z,99863.42
2022-12-08T08:13:24.219Z,99861.58
2022-12-08T08:15:50.394Z,99864.89
2022-12-08T08:18:16.968Z,99869.73
2022-12-08T08:20:42.992Z,99867.92
2022-12-08T08:23:09.326Z,99872.04
2022-12-08T08:25:35.348Z,99874.53
2022-12-08T08:28:01.318Z,99872.52
2022-12-08T08:30:27.931Z,99879.16
2022-12-08T08:32:53.956Z,99883.83
2022-12-08T08:35:19.925Z,99884.98
2022-12-08T08:37:49.197Z,99886.53
2022-12-08T08:40:17.891Z,99888.08
2022-12-08T08:42:43.902Z,99884.19
2022-12-08T08:45:13.824Z,99879.55
2022-12-08T08:47:39.959Z,99881.02
2022-12-08T08:50:07.064Z,99880.56
2022-12-08T08:52:33.434Z,99879.52
2022-12-08T08:54:59.752Z,99880.49
2022-12-08T08:57:26.306Z,99884.98
2022-12-08T08:59:53.489Z,99884.65
2022-12-08T09:02:19.724Z,99890.35
2022-12-08T09:04:47.409Z,99889.06
2022-12-08T09:07:14.368Z,99888.73
2022-12-08T09:09:41.197Z,99892.81
2022-12-08T09:12:08.189Z,99894.12
2022-12-08T09:14:35.138Z,99896.64
2022-12-08T09:17:01.281Z,99890.41
2022-12-08T09:19:27.701Z,99895.06
2022-12-08T09:21:53.864Z,99892.70
2022-12-08T09:24:20.359Z,99891.88
2022-12-08T09:26:46.706Z,99884.42
2022-12-08T09:29:14.450Z,99881.17
2022-12-08T09:31:41.133Z,99880.24
2022-12-08T09:34:07.281Z,99876.91
2022-12-08T09:36:33.388Z,99883.55
2022-12-08T09:38:59.380Z,99878.95
2022-12-08T09:41:40.397Z,99875.77
2022-12-08T09:44:48.356Z,99868.73
2022-12-08T09:47:28.384Z,99866.44
2022-12-08T09:50:11.319Z,99869.88
2022-12-08T09:52:43.057Z,99865.77
2022-12-08T09:55:19.923Z,99861.12
2022-12-08T09:57:57.576Z,99859.40
2022-12-08T10:00:24.515Z,99856.61
2022-12-08T10:02:50.661Z,99857.92
2022-12-08T10:05:16.888Z,99861.33
2022-12-08T10:08:11.771Z,99858.10
2022-12-08T10:10:46.686Z,99858.55
2022-12-08T10:13:27.351Z,99856.84
2022-12-08T10:16:29.579Z,99853.63
2022-12-08T10:19:24.572Z,99852.73
2022-12-08T10:21:52.976Z,99851.00
2022-12-08T10:24:40.174Z,99843.70
2022-12-08T10:27:12.277Z,99842.23
2022-12-08T10:29:40.054Z,99837.63
2022-12-08T10:32:21.105Z,99837.54
2022-12-08T10:35:10.265Z,99833.90
2022-12-08T10:37:36.826Z,99832.16
2022-12-08T10:40:06.098Z,99832.41
2022-12-08T10:42:37.084Z,99834.82
2022-12-08T10:45:09.317Z,99831.98
2022-12-08T10:47:44.806Z,99828.40
2022-12-08T10:50:28.061Z,99824.03
2022-12-08T10:52:59.389Z,99823.30
2022-12-08T10:55:26.455Z,99821.44
2022-12-08T10:57:52.511Z,99818.92
2022-12-08T11:00:25.591Z,99815.44
2022-12-08T11:03:03.667Z,99819.21
2022-12-08T11:05:36.097Z,99815.43
2022-12-08T11:08:04.668Z,99814.84
2022-12-08T11:10:43.737Z,99815.57
2022-12-08T11:13:20.347Z,99819.47
2022-12-08T11:15:46.579Z,99809.43
2022-12-08T11:18:28.629Z,99806.29
2022-12-08T11:20:59.445Z,99801.89
2022-12-08T11:23:30.451Z,99803.36
2022-12-08T11:26:02.762Z,99799.56
2022-12-08T11:28:28.756Z,99791.19
2022-12-08T11:31:01.805Z,99785.33
2022-12-08T11:33:29.014Z,99789.54
2022-12-08T11:36:12.345Z,99785.44
2022-12-08T11:38:46.705Z,99786.90
2022-12-08T11:41:18.831Z,99786.61
2022-12-08T11:43:53.818Z,99782.63
2022-12-08T11:46:36.493Z,99780.65
2022-12-08T11:49:09.197Z,99781.81
2022-12-08T11:51:48.232Z,99775.77
2022-12-08T11:54:24.855Z,99776.52
2022-12-08T11:57:01.836Z,99779.88
2022-12-08T11:59:37.821Z,99778.53
2022-12-08T12:02:06.167Z,99774.02
2022-12-08T12:04:48.736Z,99779.05
2022-12-08T12:07:36.699Z,99779.09
2022-12-08T12:10:21.409Z,99777.72
2022-12-08T12:13:31.740Z,99779.28
2022-12-08T12:16:59.117Z,99780.95
2022-12-08T12:19:27.149Z,99783.30
2022-12-08T12:22:08.575Z,99780.58
2022-12-08T12:24:38.648Z,99775.52
2022-12-08T12:27:19.362Z,99770.08
2022-12-08T12:29:55.449Z,99763.35
2022-12-08T12:32:22.812Z,99762.52
2022-12-08T12:34:56.157Z,99761.71
2022-12-08T12:37:38.257Z,99755.00
2022-12-08T12:40:26.793Z,99746.56
2022-12-08T12:42:56.484Z,99744.95
2022-12-08T12:45:33.360Z,99748.84
2022-12-08T12:47:59.636Z,99751.80
2022-12-08T12:50:32.271Z,99747.98
2022-12-08T12:53:17.441Z,99752.54
2022-12-08T12:55:56.342Z,99750.58
2022-12-08T12:58:31.505Z,99742.55
2022-12-08T13:01:10.047Z,99741.70
2022-12-08T13:03:51.759Z,99736.96
2022-12-08T13:06:31.838Z,99734.98
2022-12-08T13:08:58.679Z,99735.45
2022-12-08T13:11:26.440Z,99730.41
2022-12-08T13:14:26.913Z,99729.96
2022-12-08T13:16:57.065Z,99731.95
2022-12-08T13:19:23.320Z,99739.55
2022-12-08T13:21:49.950Z,99742.14
2022-12-08T13:24:25.734Z,99735.98
2022-12-08T13:27:04.038Z,99738.58
2022-12-08T13:29:32.803Z,99735.48
2022-12-08T13:32:02.697Z,99734.52
2022-12-08T13:34:49.082Z,99731.77
2022-12-08T13:37:26.311Z,99728.13
2022-12-08T13:40:01.774Z,99726.91
2022-12-08T13:42:41.798Z,99724.65
2022-12-08T13:48:25.623Z,99725.73
2022-12-08T13:57:15.799Z,99720.15
2022-12-08T13:59:45.686Z,99714.46
2022-12-08T14:02:32.684Z,99712.04
2022-12-08T14:07:48.478Z,99711.27
2022-12-08T14:10:27.863Z,99715.42
2022-12-08T14:13:06.262Z,99716.11
2022-12-08T14:15:37.845Z,99711.63
2022-12-08T14:18:06.404Z,99714.26
2022-12-08T14:20:51.969Z,99707.67
2022-12-08T14:23:20.661Z,99709.42
2022-12-08T14:25:47.759Z,99708.20
2022-12-08T14:28:13.932Z,99706.95
2022-12-08T14:30:40.701Z,99713.67
2022-12-08T14:33:13.910Z,99718.52
2022-12-08T14:35:40.510Z,99719.67
2022-12-08T14:38:16.332Z,99721.91
2022-12-08T14:40:45.241Z,99716.90
2022-12-08T14:43:14.564Z,99719.89
2022-12-08T14:45:40.803Z,99723.73
2022-12-08T14:48:25.941Z,99722.55
2022-12-08T14:51:13.686Z,99718.20
2022-12-08T14:53:47.929Z,99720.09
2022-12-08T14:56:24.272Z,99721.98
2022-12-08T14:59:09.012Z,99722.62
2022-12-08T15:01:35.860Z,99721.02
2022-12-08T15:04:06.784Z,99717.87
2022-12-08T15:06:33.005Z,99716.98
2022-12-08T15:09:00.460Z,99715.26
2022-12-08T15:11:32.865Z,99715.96
2022-12-08T15:13:59.473Z,99713.33
2022-12-08T15:16:26.013Z,99713.82
2022-12-08T15:19:16.627Z,99714.30
2022-12-08T15:21:45.625Z,99713.58
2022-12-08T15:24:13.542Z,99708.70
2022-12-08T15:26:53.543Z,99711.70
2022-12-08T15:29:26.400Z,99712.61
2022-12-08T15:31:55.493Z,99709.67
2022-12-08T15:34:21.715Z,99714.89
2022-12-08T15:36:51.094Z,99712.25
2022-12-08T15:39:38.004Z,99714.98
2022-12-08T15:42:11.181Z,99705.73
2022-12-08T15:44:37.242Z,99708.04
2022-12-08T15:47:04.061Z,99708.64
2022-12-08T15:49:30.088Z,99713.71
2022-12-08T15:52:06.499Z,99710.90
2022-12-08T15:54:37.126Z,99715.75
2022-12-08T15:57:19.285Z,99718.55
2022-12-08T15:59:49.089Z,99719.42
2022-12-08T16:02:22.206Z,99717.93
2022-12-08T16:07:37.472Z,99712.91
2022-12-08T16:10:08.004Z,99717.12
2022-12-08T16:15:55.613Z,99717.98
2022-12-08T16:18:31.096Z,99713.08
2022-12-08T16:21:09.713Z,99719.84
2022-12-08T16:23:45.027Z,99717.42
2022-12-08T16:26:28.657Z,99718.16
2022-12-08T16:29:04.475Z,99719.36
2022-12-08T16:31:30.957Z,99713.38
2022-12-08T16:33:57.492Z,99713.83
2022-12-08T16:36:23.925Z,99704.08
2022-12-08T16:38:49.974Z,99714.00
2022-12-08T16:41:36.352Z,99709.16
2022-12-08T16:44:05.288Z,99707.09
2022-12-08T16:46:31.942Z,99708.49
2022-12-08T16:48:58.417Z,99708.52
2022-12-08T16:51:27.056Z,99709.88
2022-12-08T16:53:56.547Z,99710.73
2022-12-08T16:56:26.364Z,99710.19
2022-12-08T16:58:57.216Z,99713.74
2022-12-08T17:01:23.439Z,99713.52
2022-12-08T17:04:14.432Z,99713.79
2022-12-08T17:06:35.783Z,99710.05
2022-12-08T17:09:01.809Z,99709.71
2022-12-08T17:11:29.770Z,99703.83
2022-12-08T17:13:56.272Z,99702.73
2022-12-08T17:16:22.557Z,99700.70
2022-12-08T17:18:48.881Z,99701.62
2022-12-08T17:21:17.910Z,99699.55
2022-12-08T17:23:44.566Z,99705.45
2022-12-08T17:26:12.960Z,99703.83
2022-12-08T17:28:59.608Z,99694.77
2022-12-08T17:31:31.882Z,99699.02
2022-12-08T17:34:03.605Z,99700.55
2022-12-08T17:36:30.553Z,99701.25
2022-12-08T17:39:00.651Z,99700.31
2022-12-08T17:41:27.744Z,99703.23
2022-12-08T17:43:54.651Z,99707.58
2022-12-08T17:46:21.721Z,99711.54
2022-12-08T17:48:47.995Z,99716.92
2022-12-08T17:51:15.464Z,99712.03
2022-12-08T17:53:42.421Z,99713.61
2022-12-08T17:56:19.056Z,99713.98
2022-12-08T17:58:48.548Z,99713.38
2022-12-08T18:01:17.383Z,99711.56
2022-12-08T18:03:43.879Z,99715.17
2022-12-08T18:06:12.025Z,99719.31
2022-12-08T18:08:38.912Z,99719.84
2022-12-08T18:11:11.067Z,99720.22
2022-12-08T18:13:37.332Z,99721.23
2022-12-08T18:16:03.487Z,99718.10
2022-12-08T18:18:29.554Z,99716.70
2022-12-08T18:20:55.559Z,99718.63
2022-12-08T18:23:21.876Z,99716.06
2022-12-08T18:25:48.099Z,99712.48
2022-12-08T18:28:15.012Z,99710.83
2022-12-08T18:30:41.086Z,99710.65
2022-12-08T18:33:07.666Z,99713.98
2022-12-08T18:35:34.225Z,99707.07
2022-12-08T18:38:00.995Z,99704.00
2022-12-08T18:40:27.951Z,99705.23
2022-12-08T18:42:54.494Z,99701.41
2022-12-08T18:45:22.624Z,99700.89
2022-12-08T18:47:50.723Z,99700.06
2022-12-08T18:50:17.551Z,99697.86
2022-12-08T18:52:45.239Z,99694.58
2022-12-08T18:55:11.396Z,99698.39
2022-12-08T18:57:41.937Z,99695.21
2022-12-08T19:00:11.225Z,99698.67
2022-12-08T19:02:38.640Z,99693.11
2022-12-08T19:05:08.060Z,99693.48
2022-12-08T19:07:35.067Z,99692.73
2022-12-08T19:10:05.086Z,99694.63
2022-12-08T19:12:31.573Z,99695.65
2022-12-08T19:14:58.389Z,99702.27
2022-12-08T19:17:25.371Z,99706.60
2022-12-08T19:19:51.572Z,99706.36
2022-12-08T19:22:18.139Z,99708.20
2022-12-08T19:24:44.190Z,99706.45
2022-12-08T19:27:10.211Z,99705.63
2022-12-08T19:29:36.917Z,99705.59
2022-12-08T19:32:04.613Z,99705.99
2022-12-08T19:34:30.910Z,99699.77
2022-12-08T19:36:56.994Z,99700.87
2022-12-08T19:39:42.764Z,99703.70
2022-12-08T19:42:36.079Z,99702.12
2022-12-08T19:45:17.160Z,99696.77
2022-12-08T19:47:43.328Z,99697.38
2022-12-08T19:50:30.736Z,99696.95
2022-12-08T19:52:57.858Z,99696.02
2022-12-08T19:55:24.642Z,99692.58
2022-12-08T19:57:52.184Z,99695.77
2022-12-08T20:00:19.820Z,99695.69
2022-12-08T20:02:46.848Z,99701.43
2022-12-08T20:05:14.855Z,99705.55
2022-12-08T20:07:42.599Z,99701.00
2022-12-08T20:10:16.585Z,99704.57
2022-12-08T20:12:42.697Z,99706.05
2022-12-08T20:15:10.000Z,99706.92
2022-12-08T20:17:38.577Z,99704.17
2022-12-08T20:20:08.669Z,99706.40
2022-12-08T20:22:35.664Z,99706.83
2022-12-08T20:25:03.032Z,99706.38
2022-12-08T20:27:29.354Z,99707.90
2022-12-08T20:29:56.082Z,99707.41
2022-12-08T20:32:22.316Z,99711.77
2022-12-08T20:34:51.994Z,99707.17
2022-12-08T20:37:19.245Z,99709.58
2022-12-08T20:39:45.861Z,99711.77
2022-12-08T20:42:13.334Z,99709.45
2022-12-08T20:44:43.591Z,99711.66
2022-12-08T20:47:11.494Z,99709.61
2022-12-08T20:49:38.149Z,99712.52
2022-12-08T20:52:05.357Z,99712.07
2022-12-08T20:54:32.461Z,99715.93
2022-12-08T20:56:59.045Z,99714.08
2022-12-08T20:59:26.340Z,99717.19
2022-12-08T21:01:53.620Z,99716.14
2022-12-08T21:04:21.511Z,99715.82
2022-12-08T21:06:48.993Z,99718.97
2022-12-08T21:09:15.563Z,99713.04
2022-12-08T21:11:41.858Z,99712.02
2022-12-08T21:14:08.548Z,99711.21
2022-12-08T21:16:34.880Z,99712.77
2022-12-08T21:19:00.987Z,99712.36
2022-12-08T21:21:27.144Z,99714.44
2022-12-08T21:23:53.324Z,99715.39
2022-12-08T21:26:22.642Z,99715.69
2022-12-08T21:28:54.581Z,99713.53
2022-12-08T21:31:21.550Z,99714.84
2022-12-08T21:33:48.531Z,99712.56
2022-12-08T21:36:17.816Z,99714.39
2022-12-08T21:38:44.988Z,99715.17
2022-12-08T21:41:37.623Z,99712.66
2022-12-08T21:44:05.483Z,99713.08
2022-12-08T21:46:32.006Z,99711.08
2022-12-08T21:48:59.381Z,99710.57
2022-12-08T21:51:25.768Z,99708.61
2022-12-08T21:53:52.590Z,99704.16
2022-12-08T21:56:19.403Z,99705.08
2022-12-08T21:58:45.551Z,99703.12
2022-12-08T22:01:13.315Z,99703.70
2022-12-08T22:03:40.206Z,99703.66
2022-12-08T22:06:13.483Z,99704.20
2022-12-08T22:08:40.662Z,99701.44
2022-12-08T22:11:07.712Z,99697.56
2022-12-08T22:13:36.282Z,99699.11
2022-12-08T22:16:05.941Z,99697.54
2022-12-08T22:18:34.301Z,99700.23
2022-12-08T22:21:01.210Z,99697.23
2022-12-08T22:23:27.992Z,99696.50
2022-12-08T22:26:01.335Z,99695.40
2022-12-08T22:28:34.425Z,99693.29
2022-12-08T22:31:01.104Z,99692.29
2022-12-08T22:33:30.356Z,99693.48
2022-12-08T22:36:08.061Z,99697.95
2022-12-08T22:38:36.145Z,99696.93
2022-12-08T22:41:04.884Z,99700.39
2022-12-08T22:43:32.514Z,99699.27
2022-12-08T22:45:58.921Z,99700.38
2022-12-08T22:48:25.412Z,99701.63
2022-12-08T22:50:57.903Z,99699.02
2022-12-08T22:53:24.529Z,99700.72
2022-12-08T22:55:51.359Z,99702.19
2022-12-08T22:58:17.967Z,99702.50
2022-12-08T23:00:43.981Z,99701.92
2022-12-08T23:03:10.388Z,99700.84
2022-12-08T23:05:39.267Z,99698.95
2022-12-08T23:08:08.393Z,99698.06
2022-12-08T23:10:34.956Z,99698.98
2022-12-08T23:13:03.960Z,99700.95
2022-12-08T23:15:31.090Z,99700.89
2022-12-08T23:17:58.889Z,99702.50
2022-12-08T23:20:25.762Z,99702.62
2022-12-08T23:22:51.973Z,99700.70
2022-12-08T23:25:19.148Z,99698.07
2022-12-08T23:27:46.260Z,99698.97
2022-12-08T23:30:13.668Z,99697.39
2022-12-08T23:32:40.438Z,99698.97
2022-12-08T23:35:07.641Z,99700.70
2022-12-08T23:37:36.787Z,99703.20
2022-12-08T23:40:04.944Z,99702.21
2022-12-08T23:42:31.594Z,99706.20
2022-12-08T23:44:57.927Z,99707.23
2022-12-08T23:47:24.236Z,99706.39
2022-12-08T23:49:51.143Z,99708.77
2022-12-08T23:52:17.452Z,99703.30
2022-12-08T23:54:44.464Z,99703.42
2022-12-08T23:57:11.174Z,99700.92
2022-12-08T23:59:37.771Z,99698.52
